• Join FlightAware (Why Join?)
  • Login
  • US Flag 
02:03PM EDT


 

Airport Tracker/Info


-or-


 

Live Flight TrackerFlight Track Log ✈ DAL3678 ✈ 15-Apr-2013 ✈ KMKE - KDTW

Flight Track Log - Related Links

Times and Time Zones

All times are in EDT time to prevent confusion due to time zone crossing. See the DAL3678 flight status page for this flight to view local times or setup timezone preferences in your user account.

Time Position Orientation Groundspeed Altitude Reporting Facility
EDT Latitude Longitude Course Direction KTS MPH feet Rate Location/Type
03:39PM 42.9167 -87.9000 108° East 168 193 1,500  Level KMKE
03:40PM 42.8947 -87.8061 108° East 237 273 4,500 2,100 Climbing Chicago Center
03:41PM 42.9094 -87.6975 79° East 283 326 6,700 2,400 Climbing Chicago Center
03:43PM 42.9256 -87.5811 79° East 310 357 9,500 2,580 Climbing Chicago Center
03:44PM 42.9444 -87.4656 77° East 311 358 12,000 1,500 Climbing Chicago Center
03:45PM 42.9619 -87.3353 80° East 347 399 12,700 900 Climbing Chicago Center
03:46PM 42.9861 -87.1853 78° East 394 453 13,900 1,440 Climbing Chicago Center
03:47PM 43.0122 -87.0003 79° East 412 474 15,700 1,500 Climbing Chicago Center
03:48PM 43.0328 -86.8461 80° East 414 476 17,100 960 Climbing Chicago Center
03:49PM 43.0561 -86.6853 79° East 425 489 17,800 1,080 Climbing Chicago Center
03:50PM 43.0783 -86.5214 79° East 437 503 19,400 1,260 Climbing Chicago Center
03:51PM 43.1014 -86.3581 79° East 437 503 20,500 780 Climbing Chicago Center
03:52PM 43.1239 -86.1889 80° East 444 511 21,000 240 Climbing Chicago Center
03:53PM 43.1475 -86.0044 80° East 472 543 21,000  Level Chicago Center
03:54PM 43.1719 -85.8203 80° East 479 551 21,000  Level Chicago Center
03:55PM 43.1958 -85.6392 80° East 480 552 21,000  Level Chicago Center
03:56PM 43.2194 -85.4606 80° East 478 550 21,000  Level Chicago Center
03:57PM 43.2400 -85.2803 81° East 489 563 21,000  Level Cleveland Center
03:58PM 43.2275 -85.1283 96° East 423 487 21,000  Level Cleveland Center
03:59PM 43.2017 -84.9839 104° East 403 464 21,000  Level Cleveland Center
04:00PM 43.1778 -84.8397 103° East 391 450 21,000 -720 Level Cleveland Center
04:01PM 43.1475 -84.6983 106° East 391 450 19,600 -1,500 Descending Cleveland Center
04:02PM 43.1211 -84.5600 105° East 386 444 18,000 -1,440 Descending Cleveland Center
04:02PM 43.1203 -84.5353 93° East 374 430 17,700 -1,560 Descending Chicago Center
04:03PM 43.0769 -84.3911 112° Southeast 343 395 15,900 -1,620 Descending Chicago Center
04:04PM 43.0517 -84.3339 121° Southeast 341 392 15,100 -1,440 Descending Cleveland Center
04:05PM 43.0133 -84.2264 116° Southeast 331 381 13,600 -1,500 Descending Cleveland Center
04:06PM 42.9769 -84.1250 116° Southeast 310 357 12,100 -900 Descending Cleveland Center
04:07PM 42.9444 -84.0267 114° Southeast 299 344 12,000 -120 Descending Cleveland Center
04:07PM 42.9133 -83.9456 118° Southeast 303 349 12,000  Level Cleveland Center
04:08PM 42.8978 -83.9078 119° Southeast 304 350 12,000  Level Cleveland Center
04:09PM 42.8711 -83.8269 114° Southeast 311 358 12,000  Level Cleveland Center
04:10PM 42.8236 -83.7311 124° Southeast 292 336 12,000  Level Cleveland Center
04:11PM 42.7561 -83.6881 155° Southeast 242 278 12,000 -660 Level Cleveland Center
04:12PM 42.6964 -83.6542 157° South 211 243 10,700 -1,200 Descending Cleveland Center
04:13PM 42.6561 -83.6100 141° Southeast 220 253 9,600 -1,260 Descending FAA TRACON SMA TRACON (SMA)
04:13PM 42.6453 -83.5883 124° Southeast 224 258 9,200 -1,380 Descending FAA TRACON SMA TRACON (SMA)
04:13PM 42.6314 -83.5611 125° Southeast 225 259 8,700 -1,200 Descending FAA TRACON SMA TRACON (SMA)
04:14PM 42.6208 -83.5394 124° Southeast 223 257 8,400 -1,080 Descending FAA TRACON SMA TRACON (SMA)
04:14PM 42.6094 -83.5197 128° Southeast 210 242 8,000 -1,200 Descending FAA TRACON SMA TRACON (SMA)
04:14PM 42.5933 -83.4978 135° Southeast 214 246 7,600 -1,260 Descending FAA TRACON SMA TRACON (SMA)
04:15PM 42.5819 -83.4822 135° Southeast 209 241 7,200 -1,020 Descending Cleveland Center
04:16PM 42.5317 -83.4122 134° Southeast 212 244 6,100 -660 Descending Cleveland Center
04:17PM 42.5033 -83.3694 132° Southeast 193 222 5,900 -540 Descending FAA TRACON SMA TRACON (SMA)
04:17PM 42.4917 -83.3533 134° Southeast 194 223 5,500 -1,380 Descending FAA TRACON SMA TRACON (SMA)
04:17PM 42.4800 -83.3369 134° Southeast 194 223 5,000 -1,560 Descending FAA TRACON SMA TRACON (SMA)
04:18PM 42.4656 -83.3172 135° Southeast 192 221 4,500 -1,200 Descending FAA TRACON SMA TRACON (SMA)
04:18PM 42.4536 -83.3022 137° Southeast 186 214 4,200 -780 Descending FAA TRACON SMA TRACON (SMA)
04:18PM 42.4392 -83.2997 173° South 161 185 4,000 -300 Descending FAA TRACON SMA TRACON (SMA)
04:19PM 42.4200 -83.2994 179° South 176 203 4,000  Level FAA TRACON SMA TRACON (SMA)
04:19PM 42.4069 -83.2981 176° South 155 178 4,000  Level FAA TRACON SMA TRACON (SMA)
04:19PM 42.3908 -83.2975 179° South 153 176 4,000  Level FAA TRACON SMA TRACON (SMA)
04:20PM 42.3772 -83.2969 178° South 156 180 4,000 -300 Level FAA TRACON SMA TRACON (SMA)
04:20PM 42.3644 -83.2964 178° South 158 182 3,800 -600 Descending FAA TRACON SMA TRACON (SMA)
04:20PM 42.3492 -83.2961 179° South 154 177 3,600 -780 Descending FAA TRACON SMA TRACON (SMA)
04:21PM 42.3336 -83.2958 179° South 155 178 3,300 -780 Descending FAA TRACON SMA TRACON (SMA)
04:21PM 42.3211 -83.2964 182° South 157 181 3,100 -780 Descending FAA TRACON SMA TRACON (SMA)
04:21PM 42.3067 -83.3064 207° Southwest 154 177 2,800 -900 Descending FAA TRACON SMA TRACON (SMA)
04:22PM 42.2939 -83.3167 211° Southwest 150 173 2,500 -780 Descending FAA TRACON SMA TRACON (SMA)
04:22PM 42.2831 -83.3247 209° Southwest 153 176 2,300 -900 Descending FAA TRACON SMA TRACON (SMA)
04:22PM 42.2689 -83.3350 208° Southwest 156 180 1,900 -1,200 Descending FAA TRACON SMA TRACON (SMA)
04:23PM 42.2575 -83.3433 208° Southwest 152 175 1,500 -1,080 Descending FAA TRACON SMA TRACON (SMA)
04:23PM 42.2458 -83.3519 209° Southwest 133 153 1,200 -780 Descending FAA TRACON SMA TRACON (SMA)
04:23PM 42.2364 -83.3589 209° Southwest 130 150 1,000 -600 Descending FAA TRACON SMA TRACON (SMA)
04:24PM 42.2253 -83.3669 208° Southwest 128 147 800 -480 Descending FAA TRACON SMA TRACON (SMA)
04:24PM 42.2153 -83.3744 209° Southwest 93 107 700 -180 Descending FAA TRACON SMA TRACON (SMA)
04:24PM 42.2114 -83.3772 208° Southwest 64 74 700  Level FAA TRACON SMA TRACON (SMA)